sensor_id;sensor_type;location;lat;lon;timestamp;P1;durP1;ratioP1;P2;durP2;ratioP2
22017;SDS011;11173;51.050;7.108;2022-07-12T00:01:27;2.38;;;2.28;;
22017;SDS011;11173;51.050;7.108;2022-07-12T00:06:28;2.43;;;2.33;;
22017;SDS011;11173;51.050;7.108;2022-07-12T00:11:28;2.15;;;2.05;;
22017;SDS011;11173;51.050;7.108;2022-07-12T00:16:29;2.08;;;1.98;;
22017;SDS011;11173;51.050;7.108;2022-07-12T00:21:29;1.92;;;1.83;;
22017;SDS011;11173;51.050;7.108;2022-07-12T00:26:30;2.22;;;1.73;;
22017;SDS011;11173;51.050;7.108;2022-07-12T00:31:31;2.35;;;2.15;;
22017;SDS011;11173;51.050;7.108;2022-07-12T00:36:31;2.63;;;2.45;;
22017;SDS011;11173;51.050;7.108;2022-07-12T00:41:32;1.90;;;1.80;;
22017;SDS011;11173;51.050;7.108;2022-07-12T00:46:32;2.38;;;2.28;;
22017;SDS011;11173;51.050;7.108;2022-07-12T00:51:33;2.13;;;2.00;;
22017;SDS011;11173;51.050;7.108;2022-07-12T00:56:33;2.03;;;1.77;;
22017;SDS011;11173;51.050;7.108;2022-07-12T01:01:34;2.50;;;2.40;;
22017;SDS011;11173;51.050;7.108;2022-07-12T01:06:35;2.58;;;2.47;;
22017;SDS011;11173;51.050;7.108;2022-07-12T01:11:35;2.38;;;2.28;;
22017;SDS011;11173;51.050;7.108;2022-07-12T01:16:36;2.75;;;2.55;;
22017;SDS011;11173;51.050;7.108;2022-07-12T01:21:37;2.22;;;2.10;;
22017;SDS011;11173;51.050;7.108;2022-07-12T01:26:41;2.45;;;2.35;;
22017;SDS011;11173;51.050;7.108;2022-07-12T01:31:41;2.80;;;2.70;;
22017;SDS011;11173;51.050;7.108;2022-07-12T01:36:42;2.45;;;2.25;;
22017;SDS011;11173;51.050;7.108;2022-07-12T01:41:42;2.88;;;2.78;;
22017;SDS011;11173;51.050;7.108;2022-07-12T01:46:43;2.95;;;2.75;;
22017;SDS011;11173;51.050;7.108;2022-07-12T01:51:43;3.83;;;2.83;;
22017;SDS011;11173;51.050;7.108;2022-07-12T01:56:44;2.80;;;2.70;;
22017;SDS011;11173;51.050;7.108;2022-07-12T02:01:45;3.10;;;2.90;;
22017;SDS011;11173;51.050;7.108;2022-07-12T02:06:46;2.53;;;2.42;;
22017;SDS011;11173;51.050;7.108;2022-07-12T02:11:46;2.60;;;2.40;;
22017;SDS011;11173;51.050;7.108;2022-07-12T02:16:47;2.13;;;2.03;;
22017;SDS011;11173;51.050;7.108;2022-07-12T02:21:48;1.90;;;1.80;;
22017;SDS011;11173;51.050;7.108;2022-07-12T02:26:48;1.00;;;1.00;;
22017;SDS011;11173;51.050;7.108;2022-07-12T02:31:48;0.50;;;0.50;;
22017;SDS011;11173;51.050;7.108;2022-07-12T02:36:49;1.02;;;1.02;;
22017;SDS011;11173;51.050;7.108;2022-07-12T02:41:49;0.70;;;0.70;;
22017;SDS011;11173;51.050;7.108;2022-07-12T02:46:50;0.63;;;0.63;;
22017;SDS011;11173;51.050;7.108;2022-07-12T02:51:50;1.00;;;1.00;;
22017;SDS011;11173;51.050;7.108;2022-07-12T02:56:50;1.87;;;1.77;;
22017;SDS011;11173;51.050;7.108;2022-07-12T03:01:51;2.30;;;2.20;;
22017;SDS011;11173;51.050;7.108;2022-07-12T03:06:51;2.15;;;2.05;;
22017;SDS011;11173;51.050;7.108;2022-07-12T03:11:52;2.03;;;1.92;;
22017;SDS011;11173;51.050;7.108;2022-07-12T03:16:52;2.43;;;2.33;;
22017;SDS011;11173;51.050;7.108;2022-07-12T03:21:52;2.38;;;2.25;;
22017;SDS011;11173;51.050;7.108;2022-07-12T03:26:53;2.53;;;2.42;;
22017;SDS011;11173;51.050;7.108;2022-07-12T03:31:53;3.13;;;2.92;;
22017;SDS011;11173;51.050;7.108;2022-07-12T03:36:54;2.70;;;2.50;;
22017;SDS011;11173;51.050;7.108;2022-07-12T03:41:54;3.20;;;3.00;;
22017;SDS011;11173;51.050;7.108;2022-07-12T03:46:55;2.45;;;2.33;;
22017;SDS011;11173;51.050;7.108;2022-07-12T03:51:55;2.53;;;2.42;;
22017;SDS011;11173;51.050;7.108;2022-07-12T03:56:55;2.55;;;2.45;;
22017;SDS011;11173;51.050;7.108;2022-07-12T04:02:14;2.75;;;2.55;;
22017;SDS011;11173;51.050;7.108;2022-07-12T04:07:14;2.90;;;2.70;;
22017;SDS011;11173;51.050;7.108;2022-07-12T04:12:15;2.70;;;2.55;;
22017;SDS011;11173;51.050;7.108;2022-07-12T04:17:15;2.35;;;2.22;;
22017;SDS011;11173;51.050;7.108;2022-07-12T04:22:16;2.58;;;2.47;;
22017;SDS011;11173;51.050;7.108;2022-07-12T04:27:16;2.33;;;2.23;;
22017;SDS011;11173;51.050;7.108;2022-07-12T04:32:17;1.98;;;1.88;;
22017;SDS011;11173;51.050;7.108;2022-07-12T04:37:17;1.90;;;1.80;;
22017;SDS011;11173;51.050;7.108;2022-07-12T04:42:18;1.63;;;1.52;;
22017;SDS011;11173;51.050;7.108;2022-07-12T04:47:18;1.75;;;1.65;;
22017;SDS011;11173;51.050;7.108;2022-07-12T04:52:19;1.80;;;1.70;;
22017;SDS011;11173;51.050;7.108;2022-07-12T04:57:19;1.50;;;1.40;;
22017;SDS011;11173;51.050;7.108;2022-07-12T05:02:19;1.10;;;1.10;;
22017;SDS011;11173;51.050;7.108;2022-07-12T05:07:20;0.85;;;0.85;;
22017;SDS011;11173;51.050;7.108;2022-07-12T05:12:20;1.43;;;0.90;;
22017;SDS011;11173;51.050;7.108;2022-07-12T05:17:21;0.83;;;0.83;;
22017;SDS011;11173;51.050;7.108;2022-07-12T05:22:21;1.57;;;0.60;;
22017;SDS011;11173;51.050;7.108;2022-07-12T05:27:22;0.50;;;0.50;;
22017;SDS011;11173;51.050;7.108;2022-07-12T05:32:22;0.50;;;0.50;;
22017;SDS011;11173;51.050;7.108;2022-07-12T05:37:23;0.30;;;0.30;;
22017;SDS011;11173;51.050;7.108;2022-07-12T05:42:25;0.20;;;0.20;;
22017;SDS011;11173;51.050;7.108;2022-07-12T05:47:25;0.20;;;0.20;;
22017;SDS011;11173;51.050;7.108;2022-07-12T05:52:26;0.10;;;0.10;;
22017;SDS011;11173;51.050;7.108;2022-07-12T05:57:45;0.10;;;0.10;;
22017;SDS011;11173;51.050;7.108;2022-07-12T06:02:46;0.10;;;0.10;;
22017;SDS011;11173;51.050;7.108;2022-07-12T06:07:46;0.50;;;0.50;;
22017;SDS011;11173;51.050;7.108;2022-07-12T06:12:46;0.60;;;0.60;;
22017;SDS011;11173;51.050;7.108;2022-07-12T06:17:47;0.47;;;0.47;;
22017;SDS011;11173;51.050;7.108;2022-07-12T06:22:48;0.50;;;0.50;;
22017;SDS011;11173;51.050;7.108;2022-07-12T06:27:49;0.30;;;0.30;;
22017;SDS011;11173;51.050;7.108;2022-07-12T06:32:50;0.30;;;0.30;;
22017;SDS011;11173;51.050;7.108;2022-07-12T06:37:50;0.30;;;0.30;;
22017;SDS011;11173;51.050;7.108;2022-07-12T06:42:50;0.20;;;0.20;;
22017;SDS011;11173;51.050;7.108;2022-07-12T06:47:51;0.20;;;0.20;;
22017;SDS011;11173;51.050;7.108;2022-07-12T06:52:53;0.20;;;0.20;;
22017;SDS011;11173;51.050;7.108;2022-07-12T06:57:53;0.87;;;0.30;;
22017;SDS011;11173;51.050;7.108;2022-07-12T07:02:53;0.30;;;0.30;;
22017;SDS011;11173;51.050;7.108;2022-07-12T07:07:54;0.30;;;0.30;;
22017;SDS011;11173;51.050;7.108;2022-07-12T07:12:54;0.60;;;0.60;;
22017;SDS011;11173;51.050;7.108;2022-07-12T07:17:55;0.98;;;0.98;;
22017;SDS011;11173;51.050;7.108;2022-07-12T07:22:56;0.80;;;0.80;;
22017;SDS011;11173;51.050;7.108;2022-07-12T07:27:57;0.60;;;0.60;;
22017;SDS011;11173;51.050;7.108;2022-07-12T07:32:57;0.90;;;0.90;;
22017;SDS011;11173;51.050;7.108;2022-07-12T07:37:57;0.40;;;0.40;;
22017;SDS011;11173;51.050;7.108;2022-07-12T07:43:00;0.52;;;0.52;;
22017;SDS011;11173;51.050;7.108;2022-07-12T07:48:01;0.40;;;0.30;;
22017;SDS011;11173;51.050;7.108;2022-07-12T07:53:01;0.50;;;0.50;;
22017;SDS011;11173;51.050;7.108;2022-07-12T07:58:02;0.30;;;0.30;;
22017;SDS011;11173;51.050;7.108;2022-07-12T08:03:02;0.70;;;0.70;;
22017;SDS011;11173;51.050;7.108;2022-07-12T08:08:03;1.13;;;1.10;;
22017;SDS011;11173;51.050;7.108;2022-07-12T08:13:04;0.73;;;0.73;;
22017;SDS011;11173;51.050;7.108;2022-07-12T08:18:04;0.38;;;0.38;;
22017;SDS011;11173;51.050;7.108;2022-07-12T08:23:05;0.90;;;0.90;;
22017;SDS011;11173;51.050;7.108;2022-07-12T08:28:06;0.70;;;0.70;;
22017;SDS011;11173;51.050;7.108;2022-07-12T08:33:07;0.82;;;0.80;;
22017;SDS011;11173;51.050;7.108;2022-07-12T08:38:07;0.50;;;0.50;;
22017;SDS011;11173;51.050;7.108;2022-07-12T08:43:08;0.88;;;0.88;;
22017;SDS011;11173;51.050;7.108;2022-07-12T08:48:09;0.60;;;0.60;;
22017;SDS011;11173;51.050;7.108;2022-07-12T08:53:10;0.60;;;0.60;;
22017;SDS011;11173;51.050;7.108;2022-07-12T08:58:15;0.80;;;0.80;;
22017;SDS011;11173;51.050;7.108;2022-07-12T09:03:17;0.70;;;0.70;;
22017;SDS011;11173;51.050;7.108;2022-07-12T09:08:18;0.40;;;0.40;;
22017;SDS011;11173;51.050;7.108;2022-07-12T09:18:46;0.60;;;0.60;;
22017;SDS011;11173;51.050;7.108;2022-07-12T09:24:05;0.60;;;0.60;;
22017;SDS011;11173;51.050;7.108;2022-07-12T09:29:09;0.63;;;0.60;;
22017;SDS011;11173;51.050;7.108;2022-07-12T09:34:10;0.60;;;0.60;;
22017;SDS011;11173;51.050;7.108;2022-07-12T09:39:29;0.40;;;0.40;;
22017;SDS011;11173;51.050;7.108;2022-07-12T09:44:30;0.63;;;0.50;;
22017;SDS011;11173;51.050;7.108;2022-07-12T09:49:30;0.20;;;0.20;;
22017;SDS011;11173;51.050;7.108;2022-07-12T09:54:32;0.20;;;0.20;;
22017;SDS011;11173;51.050;7.108;2022-07-12T09:59:38;0.40;;;0.40;;
22017;SDS011;11173;51.050;7.108;2022-07-12T10:04:39;0.32;;;0.30;;
22017;SDS011;11173;51.050;7.108;2022-07-12T10:09:43;0.40;;;0.40;;
22017;SDS011;11173;51.050;7.108;2022-07-12T10:14:45;0.30;;;0.30;;
22017;SDS011;11173;51.050;7.108;2022-07-12T10:19:48;0.20;;;0.20;;
22017;SDS011;11173;51.050;7.108;2022-07-12T10:24:50;0.38;;;0.38;;
22017;SDS011;11173;51.050;7.108;2022-07-12T10:30:13;0.38;;;0.38;;
22017;SDS011;11173;51.050;7.108;2022-07-12T10:35:17;0.30;;;0.30;;
22017;SDS011;11173;51.050;7.108;2022-07-12T10:40:19;0.20;;;0.20;;
22017;SDS011;11173;51.050;7.108;2022-07-12T10:45:23;0.10;;;0.10;;
22017;SDS011;11173;51.050;7.108;2022-07-12T11:01:17;0.10;;;0.10;;
22017;SDS011;11173;51.050;7.108;2022-07-12T11:06:25;0.17;;;0.17;;
22017;SDS011;11173;51.050;7.108;2022-07-12T11:11:30;0.20;;;0.20;;
22017;SDS011;11173;51.050;7.108;2022-07-12T11:16:31;0.25;;;0.25;;
22017;SDS011;11173;51.050;7.108;2022-07-12T11:21:32;0.20;;;0.20;;
22017;SDS011;11173;51.050;7.108;2022-07-12T11:26:33;0.30;;;0.30;;
22017;SDS011;11173;51.050;7.108;2022-07-12T11:31:35;0.40;;;0.40;;
22017;SDS011;11173;51.050;7.108;2022-07-12T11:36:35;0.30;;;0.30;;
22017;SDS011;11173;51.050;7.108;2022-07-12T11:41:37;0.25;;;0.25;;
22017;SDS011;11173;51.050;7.108;2022-07-12T11:46:37;0.40;;;0.40;;
22017;SDS011;11173;51.050;7.108;2022-07-12T11:51:38;0.40;;;0.40;;
22017;SDS011;11173;51.050;7.108;2022-07-12T11:56:39;1.65;;;0.30;;
22017;SDS011;11173;51.050;7.108;2022-07-12T12:01:39;0.63;;;0.32;;
22017;SDS011;11173;51.050;7.108;2022-07-12T12:06:39;0.30;;;0.30;;
22017;SDS011;11173;51.050;7.108;2022-07-12T12:11:40;0.38;;;0.38;;
22017;SDS011;11173;51.050;7.108;2022-07-12T12:16:40;0.95;;;0.38;;
22017;SDS011;11173;51.050;7.108;2022-07-12T12:21:41;0.30;;;0.30;;
22017;SDS011;11173;51.050;7.108;2022-07-12T12:26:41;0.20;;;0.20;;
22017;SDS011;11173;51.050;7.108;2022-07-12T12:31:41;0.20;;;0.20;;
22017;SDS011;11173;51.050;7.108;2022-07-12T12:37:00;0.05;;;0.05;;
22017;SDS011;11173;51.050;7.108;2022-07-12T12:42:03;0.30;;;0.30;;
22017;SDS011;11173;51.050;7.108;2022-07-12T12:47:05;0.20;;;0.20;;
22017;SDS011;11173;51.050;7.108;2022-07-12T12:52:25;0.20;;;0.20;;
22017;SDS011;11173;51.050;7.108;2022-07-12T12:57:26;0.28;;;0.28;;
22017;SDS011;11173;51.050;7.108;2022-07-12T13:02:27;0.20;;;0.20;;
22017;SDS011;11173;51.050;7.108;2022-07-12T13:07:28;0.20;;;0.20;;
22017;SDS011;11173;51.050;7.108;2022-07-12T13:12:29;0.10;;;0.10;;
22017;SDS011;11173;51.050;7.108;2022-07-12T13:17:29;0.10;;;0.10;;
22017;SDS011;11173;51.050;7.108;2022-07-12T13:22:30;0.15;;;0.15;;
22017;SDS011;11173;51.050;7.108;2022-07-12T13:27:31;0.25;;;0.20;;
22017;SDS011;11173;51.050;7.108;2022-07-12T13:32:32;0.20;;;0.20;;
22017;SDS011;11173;51.050;7.108;2022-07-12T13:37:32;0.07;;;0.07;;
22017;SDS011;11173;51.050;7.108;2022-07-12T13:42:33;0.10;;;0.10;;
22017;SDS011;11173;51.050;7.108;2022-07-12T13:47:33;0.30;;;0.30;;
22017;SDS011;11173;51.050;7.108;2022-07-12T13:52:34;0.20;;;0.20;;
22017;SDS011;11173;51.050;7.108;2022-07-12T13:57:35;0.10;;;0.10;;
22017;SDS011;11173;51.050;7.108;2022-07-12T14:02:40;0.45;;;0.10;;
22017;SDS011;11173;51.050;7.108;2022-07-12T14:07:43;0.35;;;0.20;;
22017;SDS011;11173;51.050;7.108;2022-07-12T14:12:45;0.10;;;0.10;;
22017;SDS011;11173;51.050;7.108;2022-07-12T14:17:47;0.15;;;0.15;;
22017;SDS011;11173;51.050;7.108;2022-07-12T14:22:49;0.10;;;0.10;;
22017;SDS011;11173;51.050;7.108;2022-07-12T14:27:49;0.10;;;0.10;;
22017;SDS011;11173;51.050;7.108;2022-07-12T14:32:50;0.20;;;0.10;;
22017;SDS011;11173;51.050;7.108;2022-07-12T14:37:50;0.20;;;0.20;;
22017;SDS011;11173;51.050;7.108;2022-07-12T14:42:51;0.20;;;0.15;;
22017;SDS011;11173;51.050;7.108;2022-07-12T14:47:51;0.30;;;0.20;;
22017;SDS011;11173;51.050;7.108;2022-07-12T14:52:53;0.20;;;0.20;;
22017;SDS011;11173;51.050;7.108;2022-07-12T14:57:53;0.30;;;0.30;;
22017;SDS011;11173;51.050;7.108;2022-07-12T15:02:53;0.30;;;0.30;;
22017;SDS011;11173;51.050;7.108;2022-07-12T15:07:59;0.25;;;0.25;;
22017;SDS011;11173;51.050;7.108;2022-07-12T15:12:59;0.20;;;0.20;;
22017;SDS011;11173;51.050;7.108;2022-07-12T15:18:00;0.47;;;0.30;;
22017;SDS011;11173;51.050;7.108;2022-07-12T15:23:00;0.20;;;0.20;;
22017;SDS011;11173;51.050;7.108;2022-07-12T15:28:02;0.15;;;0.10;;
22017;SDS011;11173;51.050;7.108;2022-07-12T15:33:04;0.20;;;0.20;;
22017;SDS011;11173;51.050;7.108;2022-07-12T15:38:04;0.30;;;0.30;;
22017;SDS011;11173;51.050;7.108;2022-07-12T15:43:05;0.20;;;0.20;;
22017;SDS011;11173;51.050;7.108;2022-07-12T15:48:05;0.20;;;0.17;;
22017;SDS011;11173;51.050;7.108;2022-07-12T15:53:06;0.10;;;0.10;;
22017;SDS011;11173;51.050;7.108;2022-07-12T15:58:32;0.30;;;0.30;;
22017;SDS011;11173;51.050;7.108;2022-07-12T16:03:34;0.35;;;0.35;;
22017;SDS011;11173;51.050;7.108;2022-07-12T16:08:35;0.10;;;0.10;;
22017;SDS011;11173;51.050;7.108;2022-07-12T16:13:36;0.10;;;0.10;;
22017;SDS011;11173;51.050;7.108;2022-07-12T16:18:36;0.20;;;0.20;;
22017;SDS011;11173;51.050;7.108;2022-07-12T16:23:37;0.17;;;0.10;;
22017;SDS011;11173;51.050;7.108;2022-07-12T16:28:38;0.20;;;0.20;;
22017;SDS011;11173;51.050;7.108;2022-07-12T16:33:38;0.20;;;0.17;;
22017;SDS011;11173;51.050;7.108;2022-07-12T16:38:39;0.83;;;0.20;;
22017;SDS011;11173;51.050;7.108;2022-07-12T16:43:39;0.97;;;0.30;;
22017;SDS011;11173;51.050;7.108;2022-07-12T16:48:40;0.10;;;0.10;;
22017;SDS011;11173;51.050;7.108;2022-07-12T16:53:41;0.33;;;0.30;;
22017;SDS011;11173;51.050;7.108;2022-07-12T16:58:41;0.20;;;0.20;;
22017;SDS011;11173;51.050;7.108;2022-07-12T17:03:42;0.30;;;0.30;;
22017;SDS011;11173;51.050;7.108;2022-07-12T17:08:42;0.30;;;0.30;;
22017;SDS011;11173;51.050;7.108;2022-07-12T17:13:45;0.40;;;0.40;;
22017;SDS011;11173;51.050;7.108;2022-07-12T17:18:46;0.20;;;0.20;;
22017;SDS011;11173;51.050;7.108;2022-07-12T17:23:46;0.23;;;0.23;;
22017;SDS011;11173;51.050;7.108;2022-07-12T17:28:47;0.10;;;0.10;;
22017;SDS011;11173;51.050;7.108;2022-07-12T17:33:47;0.30;;;0.30;;
22017;SDS011;11173;51.050;7.108;2022-07-12T17:38:49;0.20;;;0.20;;
22017;SDS011;11173;51.050;7.108;2022-07-12T17:43:50;0.27;;;0.10;;
22017;SDS011;11173;51.050;7.108;2022-07-12T17:48:50;0.20;;;0.20;;
22017;SDS011;11173;51.050;7.108;2022-07-12T17:53:51;0.30;;;0.30;;
22017;SDS011;11173;51.050;7.108;2022-07-12T17:58:52;0.30;;;0.30;;
22017;SDS011;11173;51.050;7.108;2022-07-12T18:03:53;0.10;;;0.10;;
22017;SDS011;11173;51.050;7.108;2022-07-12T18:08:54;0.30;;;0.20;;
22017;SDS011;11173;51.050;7.108;2022-07-12T18:13:55;0.30;;;0.30;;
22017;SDS011;11173;51.050;7.108;2022-07-12T18:19:14;0.38;;;0.20;;
22017;SDS011;11173;51.050;7.108;2022-07-12T18:24:15;0.30;;;0.30;;
22017;SDS011;11173;51.050;7.108;2022-07-12T18:29:15;0.40;;;0.40;;
22017;SDS011;11173;51.050;7.108;2022-07-12T18:34:15;0.20;;;0.20;;
22017;SDS011;11173;51.050;7.108;2022-07-12T18:39:16;0.13;;;0.13;;
22017;SDS011;11173;51.050;7.108;2022-07-12T18:44:17;0.57;;;0.17;;
22017;SDS011;11173;51.050;7.108;2022-07-12T18:49:17;0.20;;;0.20;;
22017;SDS011;11173;51.050;7.108;2022-07-12T18:54:18;0.40;;;0.22;;
22017;SDS011;11173;51.050;7.108;2022-07-12T18:59:19;0.30;;;0.30;;
22017;SDS011;11173;51.050;7.108;2022-07-12T19:04:19;0.30;;;0.30;;
22017;SDS011;11173;51.050;7.108;2022-07-12T19:09:20;0.30;;;0.30;;
22017;SDS011;11173;51.050;7.108;2022-07-12T19:14:20;0.30;;;0.30;;
22017;SDS011;11173;51.050;7.108;2022-07-12T19:19:21;0.38;;;0.38;;
22017;SDS011;11173;51.050;7.108;2022-07-12T19:24:22;0.35;;;0.30;;
22017;SDS011;11173;51.050;7.108;2022-07-12T19:29:22;0.28;;;0.20;;
22017;SDS011;11173;51.050;7.108;2022-07-12T19:34:22;0.20;;;0.20;;
22017;SDS011;11173;51.050;7.108;2022-07-12T19:39:24;1.23;;;0.50;;
22017;SDS011;11173;51.050;7.108;2022-07-12T19:44:24;0.20;;;0.20;;
22017;SDS011;11173;51.050;7.108;2022-07-12T19:49:25;0.30;;;0.30;;
22017;SDS011;11173;51.050;7.108;2022-07-12T19:54:25;0.30;;;0.30;;
22017;SDS011;11173;51.050;7.108;2022-07-12T19:59:27;0.43;;;0.43;;
22017;SDS011;11173;51.050;7.108;2022-07-12T20:04:27;0.60;;;0.60;;
22017;SDS011;11173;51.050;7.108;2022-07-12T20:09:30;0.30;;;0.30;;
22017;SDS011;11173;51.050;7.108;2022-07-12T20:14:31;0.65;;;0.50;;
22017;SDS011;11173;51.050;7.108;2022-07-12T20:19:31;0.60;;;0.40;;
22017;SDS011;11173;51.050;7.108;2022-07-12T20:24:32;0.40;;;0.40;;
22017;SDS011;11173;51.050;7.108;2022-07-12T20:29:33;0.40;;;0.40;;
22017;SDS011;11173;51.050;7.108;2022-07-12T20:34:33;0.60;;;0.60;;
22017;SDS011;11173;51.050;7.108;2022-07-12T20:39:34;0.50;;;0.50;;
22017;SDS011;11173;51.050;7.108;2022-07-12T20:44:36;1.42;;;0.77;;
22017;SDS011;11173;51.050;7.108;2022-07-12T20:49:37;0.55;;;0.55;;
22017;SDS011;11173;51.050;7.108;2022-07-12T20:54:38;0.68;;;0.68;;
22017;SDS011;11173;51.050;7.108;2022-07-12T20:59:38;0.75;;;0.70;;
22017;SDS011;11173;51.050;7.108;2022-07-12T21:04:39;0.55;;;0.55;;
22017;SDS011;11173;51.050;7.108;2022-07-12T21:09:39;1.57;;;0.80;;
22017;SDS011;11173;51.050;7.108;2022-07-12T21:14:41;0.80;;;0.50;;
22017;SDS011;11173;51.050;7.108;2022-07-12T21:19:42;0.50;;;0.50;;
22017;SDS011;11173;51.050;7.108;2022-07-12T21:24:42;0.70;;;0.70;;
22017;SDS011;11173;51.050;7.108;2022-07-12T21:29:43;0.50;;;0.50;;
22017;SDS011;11173;51.050;7.108;2022-07-12T21:34:43;1.55;;;0.70;;
22017;SDS011;11173;51.050;7.108;2022-07-12T21:39:43;0.98;;;0.68;;
22017;SDS011;11173;51.050;7.108;2022-07-12T21:44:44;0.50;;;0.50;;
22017;SDS011;11173;51.050;7.108;2022-07-12T21:49:44;0.80;;;0.80;;
22017;SDS011;11173;51.050;7.108;2022-07-12T21:54:45;0.55;;;0.40;;
22017;SDS011;11173;51.050;7.108;2022-07-12T21:59:45;0.60;;;0.60;;
22017;SDS011;11173;51.050;7.108;2022-07-12T22:04:46;0.60;;;0.55;;
22017;SDS011;11173;51.050;7.108;2022-07-12T22:09:46;0.60;;;0.60;;
22017;SDS011;11173;51.050;7.108;2022-07-12T22:14:47;1.08;;;0.70;;
22017;SDS011;11173;51.050;7.108;2022-07-12T22:19:48;0.73;;;0.40;;
22017;SDS011;11173;51.050;7.108;2022-07-12T22:24:49;0.55;;;0.55;;
22017;SDS011;11173;51.050;7.108;2022-07-12T22:29:49;0.52;;;0.52;;
22017;SDS011;11173;51.050;7.108;2022-07-12T22:34:50;0.50;;;0.50;;
22017;SDS011;11173;51.050;7.108;2022-07-12T22:39:50;0.60;;;0.60;;
22017;SDS011;11173;51.050;7.108;2022-07-12T22:44:50;0.60;;;0.60;;
22017;SDS011;11173;51.050;7.108;2022-07-12T22:49:51;0.95;;;0.50;;
22017;SDS011;11173;51.050;7.108;2022-07-12T22:54:51;0.50;;;0.50;;
22017;SDS011;11173;51.050;7.108;2022-07-12T22:59:54;0.52;;;0.52;;
22017;SDS011;11173;51.050;7.108;2022-07-12T23:04:54;0.47;;;0.47;;
22017;SDS011;11173;51.050;7.108;2022-07-12T23:09:54;0.40;;;0.40;;
22017;SDS011;11173;51.050;7.108;2022-07-12T23:14:55;0.68;;;0.60;;
22017;SDS011;11173;51.050;7.108;2022-07-12T23:19:58;0.30;;;0.20;;
22017;SDS011;11173;51.050;7.108;2022-07-12T23:24:59;0.30;;;0.30;;
22017;SDS011;11173;51.050;7.108;2022-07-12T23:29:59;0.20;;;0.20;;
22017;SDS011;11173;51.050;7.108;2022-07-12T23:35:00;0.43;;;0.43;;
22017;SDS011;11173;51.050;7.108;2022-07-12T23:40:01;0.50;;;0.50;;
22017;SDS011;11173;51.050;7.108;2022-07-12T23:45:02;0.43;;;0.40;;
22017;SDS011;11173;51.050;7.108;2022-07-12T23:50:02;0.50;;;0.50;;
22017;SDS011;11173;51.050;7.108;2022-07-12T23:55:04;0.70;;;0.70;;
